Furqlus, Syria
Current Conditions -  °F | °C
As of 3:00 AM on Wednesday 22 Oct 2014 (Local Time) from OSDI Reporting Station
Clear Clear  
Wind Chill:   Ceiling: Unl
Heat Index:   Visibility: 6mi
Dew Point:   Wind: 6mph
Humidity: 71%   Direction: 360°N
Pressure: 30.12"   Gusts: NA
Location:  34.6°N, 37.08°E
Report Text: OSDI 220000Z 36005KT CAVOK 08/03 Q1020
Loading
Personal Weather Stations






























Interactive Weather Map
Tropical Storm Tracking
New forecast layout! Learn more

10-Day Weather Forecast

Advertisements
Track Severe Weather on mobile